< Typhoon 200804 2008 Season Typhoon 200806 >
Typhoon 200805 (NAKRI)
General InformationTrack Information on Google MapsDetailed Wind InformationAccess Analytics MapList of All Images || NewsDisaster Info.WeblogTrackbackTyphoon FrontTyphoon ImaginationResourceGoogle EarthGE AnimationAtom FeedGeoJSON
Detalied Best Track (Time Zone = UTC)
Year Month Day Hour Lat. Long. Pressure (hPa) Wind (kt) Class Image Chart
2008 5 26 06 10.5 140.4 1008 0 2 Image Chart
2008 5 26 12 11.7 139.3 1010 0 2 Image Chart
2008 5 26 18 12.6 138.6 1008 0 2 Image Chart
2008 5 27 00 13.7 138.0 1006 0 2 Image Chart
2008 5 27 06 14.3 137.6 1000 35 3 Image Chart
2008 5 27 12 14.3 137.4 996 40 3 Image Chart
2008 5 27 18 14.4 137.2 990 45 3 Image Chart
2008 5 28 00 14.8 137.1 985 55 4 Image Chart
2008 5 28 06 15.5 136.8 980 65 5 Image Chart
2008 5 28 12 15.8 136.7 970 70 5 Image Chart
2008 5 28 18 16.0 136.6 955 80 5 Image Chart
2008 5 29 00 16.0 136.3 950 85 5 Image Chart
2008 5 29 06 16.2 135.8 940 95 5 Image Chart
2008 5 29 12 16.2 135.5 930 100 5 Image Chart
2008 5 29 18 16.4 135.1 930 100 5 Image Chart
2008 5 30 00 16.6 134.7 930 100 5 Image Chart
2008 5 30 06 17.0 134.1 940 95 5 Image Chart
2008 5 30 12 17.3 133.5 950 85 5 Image Chart
2008 5 30 18 17.9 133.0 960 80 5 Image Chart
2008 5 31 00 18.4 132.8 965 75 5 Image Chart
2008 5 31 06 19.2 132.8 970 70 5 Image Chart
2008 5 31 12 19.7 132.8 970 65 5 Image Chart
2008 5 31 18 20.2 132.8 970 65 5 Image Chart
2008 6 1 00 20.6 132.9 970 70 5 Image Chart
2008 6 1 06 21.5 133.1 970 70 5 Image Chart
2008 6 1 12 22.3 133.3 970 70 5 Image Chart
2008 6 1 18 23.5 133.6 965 75 5 Image Chart
2008 6 2 00 25.1 134.4 960 75 5 Image Chart
2008 6 2 06 26.8 135.5 960 75 5 Image Chart
2008 6 2 12 28.3 137.1 965 75 5 Image Chart
2008 6 2 18 29.9 138.7 970 70 5 Image Chart
2008 6 2 21 30.8 139.5 975 60 4 Image Chart
2008 6 3 00 31.5 140.3 980 55 4 Image Chart
2008 6 3 03 32.1 141.1 985 50 4 Image Chart
2008 6 3 06 32.8 142.3 990 0 6 Image Chart
2008 6 3 12 33.0 144.3 994 0 6 Image Chart
2008 6 3 18 33.4 146.8 996 0 6 Image Chart
2008 6 4 00 33.4 149.4 1000 0 6 Image Chart
2008 6 4 06 33.2 151.7 1004 0 6 Image Chart
2008 6 4 12 32.6 154.4 1004 0 6 Image Chart
2008 6 4 18 31.7 158.2 1006 0 6 Image Chart
2008 6 5 00 31.2 163.9 1008 0 6 Image Chart
2008 6 5 06 30.9 167.2 1008 0 6 Image Chart
2008 6 5 12 31.0 172.9 1008 0 6 Image Chart
2008 6 5 18 31.7 176.8 1008 0 6 Image Chart
2008 6 6 00 33.0 181.0 1008 0 6 Image Chart
Japan Meteorological Agency Best Track Data | Correction Date : 2010-03-26
< Typhoon 200804 2008 Season Typhoon 200806 >

Help